Time,TemperatureF,DewpointF,PressureIn,WindDirection,WindDirectionDegrees,WindSpeedMPH,WindSpeedGustMPH,Humidity,HourlyPrecipIn,Conditions,Clouds,dailyrainin,SoftwareType,DateUTC
2013-06-02 00:00:00,66.6,66.6,29.72,SW,229,3.0,10.0,100,0.12,,,1.22,meteohub,2013-06-02 04:00:00,
2013-06-02 00:01:00,66.6,66.6,29.72,SW,229,4.0,10.0,100,0.12,,,1.22,meteohub,2013-06-02 04:01:00,
2013-06-02 00:03:00,66.6,66.6,29.70,SW,229,0.0,10.0,100,0.12,,,1.22,meteohub,2013-06-02 04:03:00,
2013-06-02 00:08:00,66.6,66.6,29.69,SW,229,0.0,9.0,100,0.12,,,0.00,meteohub,2013-06-02 04:08:00,
2013-06-02 00:13:00,66.6,66.6,29.69,SW,229,0.0,9.0,100,0.12,,,0.00,meteohub,2013-06-02 04:13:00,
2013-06-02 00:18:00,66.6,66.6,29.68,SW,227,3.0,6.0,100,0.12,,,0.00,meteohub,2013-06-02 04:18:00,
2013-06-02 00:23:00,66.7,66.7,29.68,SSE,167,3.0,3.0,100,0.12,,,0.00,meteohub,2013-06-02 04:23:00,
2013-06-02 00:28:00,66.7,66.7,29.68,SSE,166,4.0,5.0,100,0.13,,,0.01,meteohub,2013-06-02 04:28:00,
2013-06-02 00:33:00,66.7,66.7,29.68,SSE,155,4.0,5.0,100,0.13,,,0.01,meteohub,2013-06-02 04:33:00,
2013-06-02 00:38:00,66.9,66.9,29.68,SSE,154,0.0,6.0,100,0.14,,,0.02,meteohub,2013-06-02 04:38:00,
2013-06-02 00:43:00,67.1,67.1,29.68,SSE,154,0.0,6.0,100,0.14,,,0.02,meteohub,2013-06-02 04:43:00,
2013-06-02 00:48:00,67.1,67.1,29.68,SSE,154,0.0,5.0,100,0.12,,,0.02,meteohub,2013-06-02 04:48:00,
2013-06-02 00:53:00,67.1,67.1,29.67,SSE,152,0.0,3.0,100,0.04,,,0.02,meteohub,2013-06-02 04:53:00,
2013-06-02 00:58:00,67.1,67.1,29.67,NE,55,7.0,0.0,100,0.03,,,0.02,meteohub,2013-06-02 04:58:00,
2013-06-02 01:03:00,66.9,66.9,29.66,NE,55,6.0,7.0,100,0.02,,,0.02,meteohub,2013-06-02 05:03:00,
2013-06-02 01:09:00,66.9,66.9,29.66,NE,54,10.0,10.0,100,0.02,,,0.02,meteohub,2013-06-02 05:09:00,
2013-06-02 01:14:00,66.7,66.7,29.66,NE,55,7.0,9.0,100,0.02,,,0.02,meteohub,2013-06-02 05:14:00,
2013-06-02 01:19:00,66.9,66.9,29.68,NE,55,0.0,10.0,100,0.02,,,0.02,meteohub,2013-06-02 05:19:00,
2013-06-02 01:24:00,66.9,66.9,29.67,ENE,67,6.0,10.0,100,0.02,,,0.02,meteohub,2013-06-02 05:24:00,
2013-06-02 01:29:00,66.9,66.9,29.68,WSW,257,5.0,8.0,100,0.09,,,0.10,meteohub,2013-06-02 05:29:00,
2013-06-02 01:34:00,66.9,66.9,29.67,NNW,336,1.0,10.0,100,0.14,,,0.16,meteohub,2013-06-02 05:34:00,
2013-06-02 01:39:00,67.1,67.1,29.68,West,271,6.0,10.0,100,0.15,,,0.17,meteohub,2013-06-02 05:39:00,
2013-06-02 01:44:00,67.5,67.5,29.68,SW,220,7.0,10.0,100,0.15,,,0.17,meteohub,2013-06-02 05:44:00,
2013-06-02 01:49:00,67.8,67.8,29.69,West,269,11.0,11.0,100,0.15,,,0.17,meteohub,2013-06-02 05:49:00,
2013-06-02 01:54:00,67.6,67.6,29.68,WNW,299,8.0,10.0,100,0.15,,,0.17,meteohub,2013-06-02 05:54:00,
2013-06-02 01:59:00,67.5,67.5,29.68,WNW,292,4.0,15.0,100,0.16,,,0.18,meteohub,2013-06-02 05:59:00,
2013-06-02 02:04:00,67.3,67.3,29.67,WNW,290,0.0,15.0,100,0.16,,,0.18,meteohub,2013-06-02 06:04:00,
2013-06-02 02:09:00,67.5,67.5,29.68,WNW,289,4.0,15.0,100,0.18,,,0.20,meteohub,2013-06-02 06:09:00,
2013-06-02 02:14:00,67.5,67.5,29.68,South,188,10.0,10.0,100,0.19,,,0.21,meteohub,2013-06-02 06:14:00,
2013-06-02 02:19:00,67.5,67.5,29.67,SSW,204,7.0,11.0,100,0.19,,,0.21,meteohub,2013-06-02 06:19:00,
2013-06-02 02:24:00,67.6,67.6,29.67,WSW,241,9.0,13.0,100,0.19,,,0.22,meteohub,2013-06-02 06:24:00,
2013-06-02 02:29:00,67.8,67.8,29.67,SW,236,10.0,13.0,100,0.09,,,0.22,meteohub,2013-06-02 06:29:00,
2013-06-02 02:34:00,67.8,67.8,29.67,SW,216,9.0,17.0,100,0.07,,,0.23,meteohub,2013-06-02 06:34:00,
2013-06-02 02:39:00,67.8,67.8,29.67,SSW,198,11.0,17.0,100,0.08,,,0.25,meteohub,2013-06-02 06:39:00,
2013-06-02 02:44:00,67.8,67.8,29.67,SSW,193,8.0,17.0,100,0.09,,,0.26,meteohub,2013-06-02 06:44:00,
2013-06-02 02:49:00,67.8,67.8,29.67,SSW,210,5.0,16.0,100,0.09,,,0.26,meteohub,2013-06-02 06:49:00,
2013-06-02 02:54:00,67.8,67.8,29.67,SSW,207,9.0,16.0,100,0.11,,,0.28,meteohub,2013-06-02 06:54:00,
2013-06-02 02:59:00,67.8,67.8,29.67,SSW,201,5.0,16.0,100,0.11,,,0.29,meteohub,2013-06-02 06:59:00,
2013-06-02 03:04:00,67.8,67.8,29.67,SSW,213,6.0,16.0,100,0.11,,,0.29,meteohub,2013-06-02 07:04:00,
2013-06-02 03:09:00,67.8,67.8,29.67,SSW,213,13.0,16.0,100,0.10,,,0.30,meteohub,2013-06-02 07:09:00,
2013-06-02 03:14:00,67.8,67.8,29.67,SSW,202,11.0,16.0,100,0.09,,,0.30,meteohub,2013-06-02 07:14:00,
2013-06-02 03:20:00,67.8,67.8,29.66,SSW,210,9.0,16.0,100,0.09,,,0.31,meteohub,2013-06-02 07:20:00,
2013-06-02 03:25:00,67.6,67.6,29.66,SW,217,12.0,16.0,100,0.11,,,0.33,meteohub,2013-06-02 07:25:00,
2013-06-02 03:30:00,67.6,67.6,29.67,SW,229,9.0,15.0,100,0.12,,,0.34,meteohub,2013-06-02 07:30:00,
2013-06-02 03:35:00,67.6,67.6,29.67,SW,233,12.0,15.0,100,0.10,,,0.34,meteohub,2013-06-02 07:35:00,
2013-06-02 03:40:00,67.6,67.6,29.65,South,184,7.0,20.0,100,0.09,,,0.34,meteohub,2013-06-02 07:40:00,
2013-06-02 03:45:00,67.5,67.5,29.66,SW,215,11.0,20.0,100,0.08,,,0.35,meteohub,2013-06-02 07:45:00,
2013-06-02 03:50:00,67.5,67.5,29.66,SSW,211,10.0,18.0,100,0.08,,,0.36,meteohub,2013-06-02 07:50:00,
2013-06-02 03:55:00,67.5,67.5,29.66,SSW,203,9.0,18.0,100,0.08,,,0.37,meteohub,2013-06-02 07:55:00,
2013-06-02 04:00:00,67.5,67.5,29.66,SSW,206,10.0,18.0,100,0.08,,,0.37,meteohub,2013-06-02 08:00:00,
2013-06-02 04:05:00,67.5,67.1,29.66,SW,214,9.0,17.0,99,0.07,,,0.37,meteohub,2013-06-02 08:05:00,
2013-06-02 04:10:00,67.5,67.1,29.65,SW,224,6.0,17.0,99,0.07,,,0.37,meteohub,2013-06-02 08:10:00,
2013-06-02 04:15:00,67.5,67.1,29.66,South,175,5.0,16.0,99,0.05,,,0.37,meteohub,2013-06-02 08:15:00,
2013-06-02 04:20:00,67.5,67.1,29.65,SSW,192,10.0,14.0,99,0.04,,,0.37,meteohub,2013-06-02 08:20:00,
2013-06-02 04:25:00,67.5,67.1,29.66,South,181,14.0,15.0,99,0.03,,,0.37,meteohub,2013-06-02 08:25:00,
2013-06-02 04:30:00,67.5,67.1,29.65,South,184,11.0,17.0,99,0.03,,,0.37,meteohub,2013-06-02 08:30:00,
2013-06-02 04:35:00,67.5,67.1,29.65,SSW,205,10.0,17.0,99,0.03,,,0.37,meteohub,2013-06-02 08:35:00,
2013-06-02 04:40:00,67.6,67.3,29.65,SW,227,9.0,17.0,99,0.02,,,0.37,meteohub,2013-06-02 08:40:00,
2013-06-02 04:45:00,68.0,67.5,29.66,SW,223,11.0,21.0,98,0.02,,,0.37,meteohub,2013-06-02 08:45:00,
2013-06-02 04:50:00,68.2,67.6,29.65,SW,217,16.0,21.0,98,0.01,,,0.37,meteohub,2013-06-02 08:50:00,
2013-06-02 04:55:00,68.4,67.8,29.65,South,187,17.0,26.0,98,0.00,,,0.37,meteohub,2013-06-02 08:55:00,
2013-06-02 05:00:00,68.4,67.8,29.65,SSW,209,13.0,26.0,98,0.00,,,0.37,meteohub,2013-06-02 09:00:00,
2013-06-02 05:05:00,68.5,68.0,29.65,SW,230,17.0,26.0,98,0.00,,,0.37,meteohub,2013-06-02 09:05:00,
2013-06-02 05:10:00,68.5,68.0,29.65,South,175,15.0,20.0,98,0.00,,,0.37,meteohub,2013-06-02 09:10:00,
2013-06-02 05:15:00,68.5,68.0,29.65,WSW,238,9.0,21.0,98,0.00,,,0.37,meteohub,2013-06-02 09:15:00,
2013-06-02 05:20:00,68.5,68.0,29.65,SSW,213,11.0,21.0,98,0.00,,,0.37,meteohub,2013-06-02 09:20:00,
2013-06-02 05:25:00,68.5,68.0,29.65,SW,231,10.0,21.0,98,0.00,,,0.37,meteohub,2013-06-02 09:25:00,
2013-06-02 05:30:00,68.7,68.2,29.65,WSW,240,12.0,21.0,98,0.00,,,0.37,meteohub,2013-06-02 09:30:00,
2013-06-02 05:36:00,68.7,68.2,29.65,SSW,199,16.0,21.0,98,0.00,,,0.37,meteohub,2013-06-02 09:36:00,
2013-06-02 05:41:00,68.7,68.2,29.66,SW,222,16.0,19.0,98,0.00,,,0.37,meteohub,2013-06-02 09:41:00,
2013-06-02 05:46:00,68.7,68.2,29.66,SSW,212,12.0,17.0,98,0.00,,,0.37,meteohub,2013-06-02 09:46:00,
2013-06-02 05:51:00,68.7,68.2,29.66,SW,226,14.0,17.0,98,0.00,,,0.37,meteohub,2013-06-02 09:51:00,
2013-06-02 05:56:00,68.7,68.2,29.66,SW,215,14.0,16.0,98,0.00,,,0.37,meteohub,2013-06-02 09:56:00,
2013-06-02 06:01:00,68.7,68.2,29.66,WSW,238,17.0,17.0,98,0.00,,,0.37,meteohub,2013-06-02 10:01:00,
2013-06-02 06:06:00,69.1,68.2,29.66,SW,226,10.0,21.0,97,0.00,,,0.37,meteohub,2013-06-02 10:06:00,
2013-06-02 06:11:00,69.1,68.2,29.66,SW,219,9.0,21.0,97,0.00,,,0.37,meteohub,2013-06-02 10:11:00,
2013-06-02 06:16:00,69.1,68.2,29.66,WSW,242,13.0,21.0,97,0.00,,,0.37,meteohub,2013-06-02 10:16:00,
2013-06-02 06:21:00,69.1,68.2,29.66,SW,234,18.0,20.0,97,0.00,,,0.37,meteohub,2013-06-02 10:21:00,
2013-06-02 06:26:00,69.1,68.2,29.67,SW,219,14.0,20.0,97,0.00,,,0.37,meteohub,2013-06-02 10:26:00,
2013-06-02 06:31:00,69.3,68.4,29.66,SW,214,19.0,19.0,97,0.00,,,0.37,meteohub,2013-06-02 10:31:00,
2013-06-02 06:36:00,69.3,68.4,29.66,SW,232,14.0,20.0,97,0.00,,,0.37,meteohub,2013-06-02 10:36:00,
2013-06-02 06:41:00,69.3,68.4,29.66,SW,234,13.0,20.0,97,0.00,,,0.37,meteohub,2013-06-02 10:41:00,
2013-06-02 06:46:00,69.3,68.4,29.66,South,182,10.0,20.0,97,0.00,,,0.37,meteohub,2013-06-02 10:46:00,
2013-06-02 06:51:00,69.1,68.2,29.66,SSW,212,13.0,20.0,97,0.00,,,0.37,meteohub,2013-06-02 10:51:00,
2013-06-02 06:56:00,69.1,68.2,29.66,SW,230,13.0,20.0,97,0.00,,,0.37,meteohub,2013-06-02 10:56:00,
2013-06-02 07:01:00,69.1,68.2,29.66,SW,218,12.0,20.0,97,0.00,,,0.37,meteohub,2013-06-02 11:01:00,
2013-06-02 07:06:00,69.1,68.2,29.67,SSW,213,10.0,18.0,97,0.00,,,0.37,meteohub,2013-06-02 11:06:00,
2013-06-02 07:11:00,69.1,68.2,29.67,SSW,211,16.0,17.0,97,0.00,,,0.37,meteohub,2013-06-02 11:11:00,
2013-06-02 07:16:00,69.1,68.2,29.67,SW,235,9.0,17.0,97,0.00,,,0.37,meteohub,2013-06-02 11:16:00,
2013-06-02 07:21:00,69.1,68.2,29.67,WSW,238,9.0,16.0,97,0.00,,,0.37,meteohub,2013-06-02 11:21:00,
2013-06-02 07:26:00,69.1,68.2,29.68,SW,231,12.0,17.0,97,0.00,,,0.37,meteohub,2013-06-02 11:26:00,
2013-06-02 07:32:00,69.1,68.2,29.68,SW,235,12.0,20.0,97,0.00,,,0.37,meteohub,2013-06-02 11:32:00,
2013-06-02 07:37:00,69.3,68.0,29.68,SSW,209,9.0,20.0,96,0.00,,,0.37,meteohub,2013-06-02 11:37:00,
2013-06-02 07:42:00,69.1,67.8,29.68,WSW,244,18.0,21.0,96,0.00,,,0.37,meteohub,2013-06-02 11:42:00,
2013-06-02 07:47:00,69.3,68.0,29.68,SW,225,13.0,21.0,96,0.00,,,0.37,meteohub,2013-06-02 11:47:00,
2013-06-02 07:52:00,69.4,68.0,29.68,SW,222,9.0,21.0,95,0.00,,,0.37,meteohub,2013-06-02 11:52:00,
2013-06-02 07:57:00,69.4,68.0,29.68,SW,234,15.0,24.0,95,0.00,,,0.37,meteohub,2013-06-02 11:57:00,
2013-06-02 08:02:00,69.6,67.8,29.68,SW,230,16.0,24.0,94,0.00,,,0.37,meteohub,2013-06-02 12:02:00,
2013-06-02 08:07:00,69.6,67.8,29.68,SW,231,11.0,19.0,94,0.00,,,0.37,meteohub,2013-06-02 12:07:00,
2013-06-02 08:12:00,69.6,67.8,29.68,WSW,242,13.0,20.0,94,0.00,,,0.37,meteohub,2013-06-02 12:12:00,
2013-06-02 08:17:00,69.6,67.5,29.68,WSW,250,15.0,21.0,93,0.00,,,0.37,meteohub,2013-06-02 12:17:00,
2013-06-02 08:22:00,69.6,67.5,29.68,SW,232,10.0,23.0,93,0.00,,,0.37,meteohub,2013-06-02 12:22:00,
2013-06-02 08:27:00,69.6,67.8,29.68,SW,230,10.0,23.0,94,0.00,,,0.37,meteohub,2013-06-02 12:27:00,
2013-06-02 08:32:00,69.8,67.6,29.68,WSW,242,10.0,23.0,93,0.00,,,0.37,meteohub,2013-06-02 12:32:00,
2013-06-02 08:37:00,70.0,67.8,29.68,SW,222,18.0,20.0,93,0.00,,,0.37,meteohub,2013-06-02 12:37:00,
2013-06-02 08:42:00,70.3,67.8,29.68,WSW,238,11.0,27.0,92,0.01,,,0.38,meteohub,2013-06-02 12:42:00,
2013-06-02 08:47:00,70.3,67.6,29.68,WSW,244,14.0,27.0,91,0.01,,,0.38,meteohub,2013-06-02 12:47:00,
2013-06-02 08:52:00,70.2,67.5,29.68,West,263,17.0,27.0,91,0.01,,,0.38,meteohub,2013-06-02 12:52:00,
2013-06-02 08:57:00,70.2,67.5,29.68,West,265,15.0,27.0,91,0.01,,,0.38,meteohub,2013-06-02 12:57:00,
2013-06-02 09:02:00,70.0,67.5,29.68,West,259,19.0,27.0,92,0.01,,,0.38,meteohub,2013-06-02 13:02:00,
2013-06-02 09:07:00,70.0,67.5,29.69,WSW,242,14.0,27.0,92,0.01,,,0.38,meteohub,2013-06-02 13:07:00,
2013-06-02 09:12:00,70.2,67.5,29.69,WSW,243,15.0,25.0,91,0.01,,,0.38,meteohub,2013-06-02 13:12:00,
2013-06-02 09:17:00,70.2,67.1,29.68,WSW,245,13.0,26.0,90,0.01,,,0.38,meteohub,2013-06-02 13:17:00,
2013-06-02 09:22:00,70.3,67.3,29.68,WSW,242,20.0,26.0,90,0.01,,,0.38,meteohub,2013-06-02 13:22:00,
2013-06-02 09:27:00,70.5,67.1,29.68,WSW,247,21.0,28.0,89,0.01,,,0.38,meteohub,2013-06-02 13:27:00,
2013-06-02 09:32:00,70.9,67.1,29.68,WSW,250,20.0,28.0,88,0.01,,,0.38,meteohub,2013-06-02 13:32:00,
2013-06-02 09:37:00,70.9,66.7,29.68,WSW,255,21.0,28.0,87,0.01,,,0.38,meteohub,2013-06-02 13:37:00,
2013-06-02 09:42:00,71.1,66.7,29.68,WSW,248,17.0,28.0,86,0.00,,,0.38,meteohub,2013-06-02 13:42:00,
2013-06-02 09:47:00,71.1,66.9,29.68,SW,232,10.0,28.0,87,0.00,,,0.38,meteohub,2013-06-02 13:47:00,
2013-06-02 09:52:00,71.2,66.9,29.68,West,274,18.0,28.0,86,0.00,,,0.38,meteohub,2013-06-02 13:52:00,
2013-06-02 09:57:00,71.4,66.7,29.68,SW,232,14.0,26.0,85,0.00,,,0.38,meteohub,2013-06-02 13:57:00,
2013-06-02 10:02:00,71.4,66.7,29.68,WSW,248,15.0,28.0,85,0.00,,,0.38,meteohub,2013-06-02 14:02:00,
2013-06-02 10:07:00,71.6,66.2,29.68,West,261,25.0,28.0,83,0.00,,,0.38,meteohub,2013-06-02 14:07:00,
2013-06-02 10:12:00,71.8,66.0,29.68,SW,233,20.0,33.0,82,0.00,,,0.38,meteohub,2013-06-02 14:12:00,
2013-06-02 10:17:00,71.8,65.3,29.68,WSW,254,29.0,33.0,80,0.00,,,0.38,meteohub,2013-06-02 14:17:00,
2013-06-02 10:22:00,71.8,66.0,29.68,West,259,24.0,31.0,82,0.00,,,0.38,meteohub,2013-06-02 14:22:00,
2013-06-02 10:27:00,71.8,66.0,29.69,West,260,18.0,31.0,82,0.00,,,0.38,meteohub,2013-06-02 14:27:00,
2013-06-02 10:32:00,71.2,65.5,29.69,WSW,256,28.0,31.0,82,0.00,,,0.38,meteohub,2013-06-02 14:32:00,
2013-06-02 10:37:00,70.9,65.5,29.69,West,277,20.0,33.0,83,0.00,,,0.38,meteohub,2013-06-02 14:37:00,
2013-06-02 10:42:00,70.2,65.1,29.70,WSW,257,20.0,33.0,84,0.00,,,0.38,meteohub,2013-06-02 14:42:00,
2013-06-02 10:47:00,69.8,64.8,29.70,West,265,25.0,31.0,84,0.00,,,0.38,meteohub,2013-06-02 14:47:00,
2013-06-02 10:52:00,69.3,64.6,29.70,WSW,257,20.0,31.0,85,0.00,,,0.38,meteohub,2013-06-02 14:52:00,
2013-06-02 10:57:00,68.7,64.4,29.71,West,262,26.0,31.0,86,0.00,,,0.38,meteohub,2013-06-02 14:57:00,
2013-06-02 11:02:00,68.5,64.6,29.71,West,263,25.0,32.0,87,0.00,,,0.38,meteohub,2013-06-02 15:02:00,
2013-06-02 11:07:00,68.2,63.9,29.71,West,279,25.0,32.0,86,0.00,,,0.38,meteohub,2013-06-02 15:07:00,
2013-06-02 11:12:00,67.8,63.5,29.71,WSW,256,23.0,32.0,86,0.00,,,0.38,meteohub,2013-06-02 15:12:00,
2013-06-02 11:17:00,67.6,63.3,29.72,WSW,254,23.0,32.0,86,0.00,,,0.38,meteohub,2013-06-02 15:17:00,
2013-06-02 11:22:00,67.5,63.9,29.72,WSW,254,22.0,32.0,88,0.00,,,0.38,meteohub,2013-06-02 15:22:00,
2013-06-02 11:27:00,67.3,63.7,29.72,West,266,28.0,31.0,88,0.00,,,0.38,meteohub,2013-06-02 15:27:00,
2013-06-02 11:32:00,66.7,63.7,29.72,WSW,254,23.0,29.0,90,0.00,,,0.38,meteohub,2013-06-02 15:32:00,
2013-06-02 11:37:00,66.0,63.7,29.72,West,265,24.0,31.0,92,0.00,,,0.38,meteohub,2013-06-02 15:37:00,
2013-06-02 11:42:00,65.7,63.5,29.72,WSW,256,22.0,31.0,93,0.00,,,0.38,meteohub,2013-06-02 15:42:00,
2013-06-02 11:47:00,65.3,63.1,29.73,West,263,28.0,29.0,93,0.00,,,0.38,meteohub,2013-06-02 15:47:00,
2013-06-02 11:52:00,64.9,63.1,29.73,West,263,23.0,29.0,94,0.00,,,0.38,meteohub,2013-06-02 15:52:00,
2013-06-02 11:57:00,64.6,62.8,29.73,West,260,27.0,28.0,94,0.00,,,0.38,meteohub,2013-06-02 15:57:00,
2013-06-02 12:02:00,64.2,62.4,29.73,West,260,26.0,30.0,94,0.00,,,0.38,meteohub,2013-06-02 16:02:00,
2013-06-02 12:07:00,64.0,62.6,29.73,West,265,20.0,30.0,95,0.00,,,0.38,meteohub,2013-06-02 16:07:00,
2013-06-02 12:12:00,64.0,62.6,29.73,WSW,258,22.0,28.0,95,0.00,,,0.38,meteohub,2013-06-02 16:12:00,
2013-06-02 12:17:00,64.2,62.8,29.73,West,275,22.0,29.0,95,0.00,,,0.38,meteohub,2013-06-02 16:17:00,
2013-06-02 12:22:00,63.9,62.4,29.74,West,263,26.0,29.0,95,0.00,,,0.38,meteohub,2013-06-02 16:22:00,
2013-06-02 12:27:00,64.0,62.6,29.74,WSW,257,20.0,30.0,95,0.00,,,0.38,meteohub,2013-06-02 16:27:00,
2013-06-02 12:32:00,64.2,62.8,29.74,West,259,19.0,30.0,95,0.00,,,0.38,meteohub,2013-06-02 16:32:00,
2013-06-02 12:37:00,63.9,62.4,29.74,West,277,22.0,29.0,95,0.00,,,0.38,meteohub,2013-06-02 16:37:00,
2013-06-02 12:42:00,64.0,62.6,29.75,West,273,19.0,27.0,95,0.00,,,0.38,meteohub,2013-06-02 16:42:00,
2013-06-02 12:47:00,64.0,62.6,29.75,West,259,22.0,27.0,95,0.00,,,0.38,meteohub,2013-06-02 16:47:00,
2013-06-02 12:52:00,64.0,62.2,29.75,West,259,22.0,30.0,94,0.00,,,0.38,meteohub,2013-06-02 16:52:00,
2013-06-02 12:57:00,64.0,62.2,29.75,WSW,256,20.0,30.0,94,0.00,,,0.38,meteohub,2013-06-02 16:57:00,
2013-06-02 13:02:00,64.2,62.4,29.74,West,262,18.0,30.0,94,0.00,,,0.38,meteohub,2013-06-02 17:02:00,
2013-06-02 13:07:00,64.6,62.4,29.75,West,275,23.0,30.0,93,0.00,,,0.38,meteohub,2013-06-02 17:07:00,
2013-06-02 13:12:00,64.8,62.6,29.74,WSW,257,18.0,30.0,93,0.00,,,0.38,meteohub,2013-06-02 17:12:00,
2013-06-02 13:17:00,64.9,62.6,29.75,WSW,258,21.0,29.0,92,0.00,,,0.38,meteohub,2013-06-02 17:17:00,
2013-06-02 13:22:00,65.1,62.8,29.75,WSW,254,22.0,29.0,92,0.00,,,0.38,meteohub,2013-06-02 17:22:00,
2013-06-02 13:27:00,64.9,62.6,29.75,WSW,255,20.0,33.0,92,0.00,,,0.38,meteohub,2013-06-02 17:27:00,
2013-06-02 13:32:00,64.8,62.6,29.75,West,263,23.0,33.0,93,0.00,,,0.38,meteohub,2013-06-02 17:32:00,
2013-06-02 13:37:00,64.9,62.6,29.75,WSW,257,22.0,30.0,92,0.00,,,0.38,meteohub,2013-06-02 17:37:00,
2013-06-02 13:42:00,65.3,62.6,29.75,West,266,29.0,29.0,91,0.00,,,0.38,meteohub,2013-06-02 17:42:00,
2013-06-02 13:47:00,65.5,62.4,29.75,West,260,29.0,33.0,90,0.00,,,0.38,meteohub,2013-06-02 17:47:00,
2013-06-02 13:52:00,65.7,62.6,29.75,West,265,19.0,33.0,90,0.00,,,0.38,meteohub,2013-06-02 17:52:00,
2013-06-02 13:57:00,66.0,62.6,29.75,West,268,30.0,33.0,89,0.00,,,0.38,meteohub,2013-06-02 17:57:00,
2013-06-02 14:02:00,66.0,62.6,29.75,WSW,251,26.0,35.0,89,0.00,,,0.38,meteohub,2013-06-02 18:02:00,
2013-06-02 14:07:00,66.0,62.1,29.75,WSW,254,22.0,35.0,87,0.00,,,0.38,meteohub,2013-06-02 18:07:00,
2013-06-02 14:13:00,66.4,62.8,29.75,West,260,25.0,35.0,88,0.00,,,0.38,meteohub,2013-06-02 18:13:00,
2013-06-02 14:18:00,66.4,62.8,29.75,WSW,249,25.0,35.0,88,0.00,,,0.38,meteohub,2013-06-02 18:18:00,
2013-06-02 14:23:00,66.0,62.6,29.76,West,267,21.0,35.0,89,0.00,,,0.38,meteohub,2013-06-02 18:23:00,
2013-06-02 14:28:00,66.0,62.6,29.76,West,262,20.0,34.0,89,0.00,,,0.38,meteohub,2013-06-02 18:28:00,
2013-06-02 14:33:00,66.2,62.8,29.76,WSW,257,21.0,31.0,89,0.00,,,0.38,meteohub,2013-06-02 18:33:00,
2013-06-02 14:38:00,66.0,62.4,29.76,WSW,247,18.0,31.0,88,0.00,,,0.38,meteohub,2013-06-02 18:38:00,
2013-06-02 14:43:00,66.4,62.8,29.76,West,261,26.0,31.0,88,0.00,,,0.38,meteohub,2013-06-02 18:43:00,
2013-06-02 14:48:00,66.6,63.0,29.76,West,264,23.0,29.0,88,0.00,,,0.38,meteohub,2013-06-02 18:48:00,
2013-06-02 14:53:00,66.6,63.0,29.76,WSW,247,21.0,28.0,88,0.00,,,0.38,meteohub,2013-06-02 18:53:00,
2013-06-02 14:59:00,66.7,63.1,29.76,WSW,258,22.0,28.0,88,0.00,,,0.38,meteohub,2013-06-02 18:59:00,
2013-06-02 15:04:00,67.1,63.1,29.76,WSW,248,19.0,31.0,87,0.00,,,0.38,meteohub,2013-06-02 19:04:00,
2013-06-02 15:09:00,67.1,63.5,29.77,West,263,19.0,31.0,88,0.00,,,0.38,meteohub,2013-06-02 19:09:00,
2013-06-02 15:14:00,66.9,63.3,29.77,WSW,257,20.0,31.0,88,0.00,,,0.38,meteohub,2013-06-02 19:14:00,
2013-06-02 15:19:00,66.7,63.1,29.77,WSW,252,24.0,29.0,88,0.00,,,0.38,meteohub,2013-06-02 19:19:00,
2013-06-02 15:24:00,66.6,63.0,29.77,WSW,248,17.0,29.0,88,0.00,,,0.38,meteohub,2013-06-02 19:24:00,
2013-06-02 15:29:00,66.6,63.1,29.77,WSW,256,22.0,26.0,89,0.00,,,0.38,meteohub,2013-06-02 19:29:00,
2013-06-02 15:34:00,66.6,63.0,29.76,West,259,18.0,26.0,88,0.00,,,0.38,meteohub,2013-06-02 19:34:00,
2013-06-02 15:39:00,66.7,63.3,29.77,WSW,252,19.0,27.0,89,0.00,,,0.38,meteohub,2013-06-02 19:39:00,
2013-06-02 15:44:00,66.9,63.3,29.77,West,259,22.0,27.0,88,0.00,,,0.38,meteohub,2013-06-02 19:44:00,
2013-06-02 15:49:00,66.9,63.3,29.77,West,259,19.0,27.0,88,0.00,,,0.38,meteohub,2013-06-02 19:49:00,
2013-06-02 15:54:00,66.9,63.3,29.77,West,267,15.0,26.0,88,0.00,,,0.38,meteohub,2013-06-02 19:54:00,
2013-06-02 15:59:00,66.9,63.3,29.77,WSW,254,20.0,26.0,88,0.00,,,0.38,meteohub,2013-06-02 19:59:00,
2013-06-02 16:04:00,67.1,63.5,29.77,West,267,22.0,26.0,88,0.00,,,0.38,meteohub,2013-06-02 20:04:00,
2013-06-02 16:09:00,66.9,63.3,29.77,West,263,20.0,25.0,88,0.00,,,0.38,meteohub,2013-06-02 20:09:00,
2013-06-02 16:14:00,66.9,63.3,29.77,West,259,17.0,26.0,88,0.00,,,0.38,meteohub,2013-06-02 20:14:00,
2013-06-02 16:20:00,66.9,63.3,29.77,WSW,255,20.0,26.0,88,0.00,,,0.38,meteohub,2013-06-02 20:20:00,
2013-06-02 16:25:00,66.9,63.0,29.77,West,261,20.0,27.0,87,0.00,,,0.38,meteohub,2013-06-02 20:25:00,
2013-06-02 16:30:00,66.9,63.0,29.77,West,259,21.0,27.0,87,0.00,,,0.38,meteohub,2013-06-02 20:30:00,
2013-06-02 16:35:00,66.9,63.3,29.77,WSW,257,18.0,26.0,88,0.00,,,0.38,meteohub,2013-06-02 20:35:00,
2013-06-02 16:40:00,66.7,63.1,29.77,West,263,16.0,26.0,88,0.00,,,0.38,meteohub,2013-06-02 20:40:00,
2013-06-02 16:45:00,66.6,63.0,29.77,WSW,251,22.0,23.0,88,0.00,,,0.38,meteohub,2013-06-02 20:45:00,
2013-06-02 16:50:00,66.4,62.8,29.77,West,259,20.0,24.0,88,0.00,,,0.38,meteohub,2013-06-02 20:50:00,
2013-06-02 16:55:00,66.4,63.0,29.77,West,261,17.0,24.0,89,0.00,,,0.38,meteohub,2013-06-02 20:55:00,
2013-06-02 17:00:00,66.6,63.1,29.77,WSW,248,18.0,24.0,89,0.00,,,0.38,meteohub,2013-06-02 21:00:00,
2013-06-02 17:05:00,66.6,63.0,29.77,West,259,21.0,23.0,88,0.00,,,0.38,meteohub,2013-06-02 21:05:00,
2013-06-02 17:10:00,66.4,63.0,29.77,West,261,16.0,23.0,89,0.00,,,0.38,meteohub,2013-06-02 21:10:00,
2013-06-02 17:15:00,66.4,62.8,29.77,WSW,252,19.0,24.0,88,0.00,,,0.38,meteohub,2013-06-02 21:15:00,
2013-06-02 17:20:00,66.4,63.0,29.77,West,260,14.0,24.0,89,0.00,,,0.38,meteohub,2013-06-02 21:20:00,
2013-06-02 17:26:00,66.6,63.1,29.77,WSW,252,18.0,24.0,89,0.00,,,0.38,meteohub,2013-06-02 21:26:00,
2013-06-02 17:31:00,66.4,62.8,29.77,West,263,16.0,23.0,88,0.00,,,0.38,meteohub,2013-06-02 21:31:00,
2013-06-02 17:36:00,66.4,62.8,29.77,WSW,256,16.0,23.0,88,0.00,,,0.38,meteohub,2013-06-02 21:36:00,
2013-06-02 17:41:00,66.6,63.1,29.76,WSW,250,15.0,23.0,89,0.00,,,0.38,meteohub,2013-06-02 21:41:00,
2013-06-02 17:46:00,66.6,63.0,29.76,West,263,17.0,23.0,88,0.00,,,0.38,meteohub,2013-06-02 21:46:00,
2013-06-02 17:51:00,66.4,62.8,29.77,West,261,18.0,22.0,88,0.00,,,0.38,meteohub,2013-06-02 21:51:00,
2013-06-02 17:56:00,66.6,63.0,29.76,WSW,250,18.0,24.0,88,0.00,,,0.38,meteohub,2013-06-02 21:56:00,
2013-06-02 18:01:00,66.6,62.6,29.77,WSW,252,20.0,25.0,87,0.00,,,0.38,meteohub,2013-06-02 22:01:00,
2013-06-02 18:06:00,66.7,62.8,29.76,West,259,24.0,25.0,87,0.00,,,0.38,meteohub,2013-06-02 22:06:00,
2013-06-02 18:11:00,66.7,62.4,29.77,West,265,25.0,25.0,86,0.00,,,0.38,meteohub,2013-06-02 22:11:00,
2013-06-02 18:16:00,66.9,63.0,29.77,WSW,246,19.0,26.0,87,0.00,,,0.38,meteohub,2013-06-02 22:16:00,
2013-06-02 18:21:00,67.1,62.4,29.77,West,259,20.0,26.0,85,0.00,,,0.38,meteohub,2013-06-02 22:21:00,
2013-06-02 18:26:00,67.1,62.4,29.77,West,267,20.0,26.0,85,0.00,,,0.38,meteohub,2013-06-02 22:26:00,
2013-06-02 18:32:00,67.3,62.6,29.77,WSW,253,17.0,24.0,85,0.00,,,0.38,meteohub,2013-06-02 22:32:00,
2013-06-02 18:37:00,66.9,62.6,29.77,WSW,244,19.0,26.0,86,0.00,,,0.38,meteohub,2013-06-02 22:37:00,
2013-06-02 18:42:00,66.7,62.8,29.76,West,259,19.0,26.0,87,0.00,,,0.38,meteohub,2013-06-02 22:42:00,
2013-06-02 18:47:00,66.7,62.4,29.77,WSW,254,17.0,26.0,86,0.00,,,0.38,meteohub,2013-06-02 22:47:00,
2013-06-02 18:52:00,66.7,62.8,29.77,WSW,250,19.0,24.0,87,0.00,,,0.38,meteohub,2013-06-02 22:52:00,
2013-06-02 18:57:00,66.7,62.4,29.77,West,259,20.0,24.0,86,0.00,,,0.38,meteohub,2013-06-02 22:57:00,
2013-06-02 19:02:00,66.4,62.8,29.77,West,263,17.0,24.0,88,0.00,,,0.38,meteohub,2013-06-02 23:02:00,
2013-06-02 19:07:00,66.4,62.4,29.77,WSW,258,19.0,24.0,87,0.00,,,0.38,meteohub,2013-06-02 23:07:00,
2013-06-02 19:12:00,66.4,62.8,29.77,West,259,17.0,24.0,88,0.00,,,0.38,meteohub,2013-06-02 23:12:00,
2013-06-02 19:17:00,66.6,63.0,29.77,WSW,239,13.0,23.0,88,0.00,,,0.38,meteohub,2013-06-02 23:17:00,
2013-06-02 19:22:00,66.7,62.8,29.77,West,265,14.0,23.0,87,0.00,,,0.38,meteohub,2013-06-02 23:22:00,
2013-06-02 19:27:00,66.6,63.0,29.78,WSW,256,18.0,22.0,88,0.00,,,0.38,meteohub,2013-06-02 23:27:00,
2013-06-02 19:32:00,66.0,62.4,29.78,West,277,21.0,23.0,88,0.00,,,0.38,meteohub,2013-06-02 23:32:00,
2013-06-02 19:37:00,65.7,62.1,29.78,West,266,21.0,26.0,88,0.00,,,0.38,meteohub,2013-06-02 23:37:00,
2013-06-02 19:42:00,65.1,61.9,29.78,West,264,19.0,26.0,89,0.00,,,0.38,meteohub,2013-06-02 23:42:00,
2013-06-02 19:47:00,64.8,61.7,29.78,WNW,285,18.0,26.0,90,0.00,,,0.38,meteohub,2013-06-02 23:47:00,
2013-06-02 19:52:00,64.2,61.5,29.79,West,275,13.0,24.0,91,0.00,,,0.38,meteohub,2013-06-02 23:52:00,
2013-06-02 19:57:00,63.9,61.5,29.79,West,271,13.0,24.0,92,0.00,,,0.38,meteohub,2013-06-02 23:57:00,
2013-06-02 20:02:00,63.7,61.3,29.79,West,275,15.0,20.0,92,0.00,,,0.38,meteohub,2013-06-03 00:02:00,
2013-06-02 20:07:00,63.5,61.2,29.79,WSW,256,13.0,19.0,92,0.00,,,0.38,meteohub,2013-06-03 00:07:00,
2013-06-02 20:12:00,63.1,61.2,29.79,West,281,13.0,18.0,93,0.00,,,0.38,meteohub,2013-06-03 00:12:00,
2013-06-02 20:17:00,63.0,61.0,29.79,West,267,12.0,18.0,93,0.00,,,0.38,meteohub,2013-06-03 00:17:00,
2013-06-02 20:22:00,62.8,61.0,29.79,West,273,11.0,16.0,94,0.00,,,0.38,meteohub,2013-06-03 00:22:00,
2013-06-02 20:27:00,62.6,60.8,29.80,West,263,11.0,16.0,94,0.00,,,0.38,meteohub,2013-06-03 00:27:00,
2013-06-02 20:32:00,62.6,61.2,29.80,West,271,10.0,14.0,95,0.00,,,0.38,meteohub,2013-06-03 00:32:00,
2013-06-02 20:37:00,62.4,60.6,29.80,West,267,6.0,14.0,94,0.00,,,0.38,meteohub,2013-06-03 00:37:00,
2013-06-02 20:42:00,62.4,60.6,29.80,West,271,9.0,13.0,94,0.00,,,0.38,meteohub,2013-06-03 00:42:00,
2013-06-02 20:47:00,62.2,60.4,29.81,WNW,284,11.0,13.0,94,0.00,,,0.38,meteohub,2013-06-03 00:47:00,
2013-06-02 20:52:00,62.1,60.3,29.81,West,278,9.0,13.0,94,0.00,,,0.38,meteohub,2013-06-03 00:52:00,
2013-06-02 20:57:00,62.1,60.6,29.81,WNW,283,9.0,13.0,95,0.00,,,0.38,meteohub,2013-06-03 00:57:00,
2013-06-02 21:02:00,62.1,60.3,29.81,WNW,294,8.0,12.0,94,0.00,,,0.38,meteohub,2013-06-03 01:02:00,
2013-06-02 21:07:00,62.1,60.3,29.81,WNW,303,3.0,11.0,94,0.00,,,0.38,meteohub,2013-06-03 01:07:00,
2013-06-02 21:12:00,62.2,60.4,29.81,WNW,302,7.0,10.0,94,0.00,,,0.38,meteohub,2013-06-03 01:12:00,
2013-06-02 21:17:00,62.1,60.1,29.81,WNW,298,6.0,10.0,93,0.00,,,0.38,meteohub,2013-06-03 01:17:00,
2013-06-02 21:22:00,61.9,60.1,29.82,WNW,298,5.0,10.0,94,0.00,,,0.38,meteohub,2013-06-03 01:22:00,
2013-06-02 21:27:00,61.9,59.9,29.82,West,275,7.0,9.0,93,0.00,,,0.38,meteohub,2013-06-03 01:27:00,
2013-06-02 21:32:00,61.9,59.9,29.82,WNW,292,4.0,9.0,93,0.00,,,0.38,meteohub,2013-06-03 01:32:00,
2013-06-02 21:37:00,61.9,59.9,29.83,NW,309,2.0,9.0,93,0.00,,,0.38,meteohub,2013-06-03 01:37:00,
2013-06-02 21:42:00,61.9,59.5,29.83,WNW,299,8.0,9.0,92,0.00,,,0.38,meteohub,2013-06-03 01:42:00,
2013-06-02 21:47:00,62.1,59.7,29.83,NW,313,5.0,10.0,92,0.00,,,0.38,meteohub,2013-06-03 01:47:00,
2013-06-02 21:52:00,61.9,59.2,29.83,NNW,336,8.0,12.0,91,0.00,,,0.38,meteohub,2013-06-03 01:52:00,
2013-06-02 21:57:00,61.7,59.0,29.83,NNW,333,7.0,12.0,91,0.00,,,0.38,meteohub,2013-06-03 01:57:00,
2013-06-02 22:02:00,61.5,58.8,29.84,NNW,336,10.0,12.0,91,0.00,,,0.38,meteohub,2013-06-03 02:02:00,
2013-06-02 22:07:00,61.5,58.8,29.84,North,349,9.0,12.0,91,0.00,,,0.38,meteohub,2013-06-03 02:07:00,
2013-06-02 22:12:00,61.5,58.8,29.84,NNW,342,7.0,12.0,91,0.00,,,0.38,meteohub,2013-06-03 02:12:00,
2013-06-02 22:17:00,61.5,58.8,29.85,NNW,346,9.0,13.0,91,0.00,,,0.38,meteohub,2013-06-03 02:17:00,
2013-06-02 22:22:00,61.2,58.3,29.85,NNW,336,9.0,13.0,90,0.00,,,0.38,meteohub,2013-06-03 02:22:00,
2013-06-02 22:27:00,61.0,58.3,29.85,NNW,332,9.0,13.0,91,0.00,,,0.38,meteohub,2013-06-03 02:27:00,
2013-06-02 22:32:00,60.6,57.9,29.85,North,355,12.0,13.0,91,0.00,,,0.38,meteohub,2013-06-03 02:32:00,
2013-06-02 22:37:00,60.4,57.7,29.86,North,350,10.0,13.0,91,0.00,,,0.38,meteohub,2013-06-03 02:37:00,
2013-06-02 22:42:00,60.4,57.7,29.86,North,355,10.0,14.0,91,0.00,,,0.38,meteohub,2013-06-03 02:42:00,
2013-06-02 22:47:00,60.3,57.6,29.86,NNW,343,13.0,15.0,91,0.00,,,0.38,meteohub,2013-06-03 02:47:00,
2013-06-02 22:52:00,60.1,57.4,29.86,NNE,13,13.0,16.0,91,0.00,,,0.38,meteohub,2013-06-03 02:52:00,
2013-06-02 22:57:00,59.7,57.0,29.86,North,11,10.0,16.0,91,0.00,,,0.38,meteohub,2013-06-03 02:57:00,
2013-06-02 23:02:00,59.5,56.7,29.86,North,355,11.0,16.0,90,0.00,,,0.38,meteohub,2013-06-03 03:02:00,
2013-06-02 23:07:00,59.5,56.7,29.87,North,355,14.0,16.0,90,0.00,,,0.38,meteohub,2013-06-03 03:07:00,
2013-06-02 23:12:00,59.5,56.8,29.87,NNW,340,14.0,17.0,91,0.00,,,0.38,meteohub,2013-06-03 03:12:00,
2013-06-02 23:17:00,59.5,57.2,29.87,North,355,10.0,17.0,92,0.00,,,0.38,meteohub,2013-06-03 03:17:00,
2013-06-02 23:22:00,59.4,57.0,29.87,North,355,15.0,17.0,92,0.00,,,0.38,meteohub,2013-06-03 03:22:00,
2013-06-02 23:27:00,59.2,56.5,29.87,North,355,12.0,17.0,91,0.00,,,0.38,meteohub,2013-06-03 03:27:00,
2013-06-02 23:32:00,59.0,56.3,29.87,North,355,12.0,17.0,91,0.00,,,0.38,meteohub,2013-06-03 03:32:00,
2013-06-02 23:37:00,59.0,56.1,29.87,North,355,14.0,17.0,90,0.00,,,0.38,meteohub,2013-06-03 03:37:00,
2013-06-02 23:42:00,59.0,56.3,29.87,North,355,12.0,17.0,91,0.00,,,0.38,meteohub,2013-06-03 03:42:00,
2013-06-02 23:47:00,59.0,56.1,29.88,NNW,345,13.0,17.0,90,0.00,,,0.38,meteohub,2013-06-03 03:47:00,
2013-06-02 23:52:00,59.0,56.1,29.88,NNW,342,16.0,17.0,90,0.00,,,0.38,meteohub,2013-06-03 03:52:00,
2013-06-02 23:57:00,59.0,56.3,29.87,NNW,348,12.0,17.0,91,0.00,,,0.38,meteohub,2013-06-03 03:57:00,